Impacts TAF Board INFO
FOR SITUATIONAL AWARENESS. NOT TO BE USED FOR FLIGHT PLANNING PURPOSES.
IDs:

KEWR - Newark Intl, NJ, US

Issued at 2322 UTC 18 Nov 2017
Updated at 0109 UTC 19 Nov 2017
Potential Impact None Slight Moderate High
Time<<19/14Z 19/15Z 19/16Z 19/17Z 19/18Z 19/19Z 19/20Z 19/21Z 19/22Z 19/23Z 20/00Z 20/01Z 20/02Z>>
Type PRVL PRVL PRVL PRVL PRVL PRVL PRVL PRVL PRVL PRVL PRVL PRVL PRVL
VIS 5 >6 >6 >6 >6 >6 >6 >6 >6 >6 >6 >6 >6
CIG 20 40 40 40 40 40 40 40 40 -- -- -- --
Cover OVC BKN BKN BKN BKN BKN BKN BKN BKN SCT SCT SCT SCT
FltCat MVFR VFR VFR VFR VFR VFR VFR VFR VFR VFR VFR VFR VFR
WX -SHRA BR -- -- -- -- -- -- -- -- -- -- -- --
WDir 240 280 280 280 280 280 280 280 280 290 290 290 290
WSpd 23 24 24 24 24 24 24 24 24 17 17 17 17
WGst 37 37 37 37 37 34 34 34 34 28 28 28 28

Raw TAF
KEWR 182322Z 1900/2006 19007KT 6SM -SHRA BKN060
  FM190200 21013G21KT 6SM -SHRA OVC050
  FM190600 21017G34KT 3SM SHRA BR BKN015 OVC035
  FM191100 24023G37KT 5SM -SHRA BR BKN020 OVC040
  FM191500 28024G37KT P6SM BKN040
  FM191900 28024G34KT P6SM BKN040
  FM192300 29017G28KT P6SM SCT050


METAR Board
Radar Display
Forecast Discussion

FOR SITUATIONAL AWARENESS. NOT TO BE USED FOR FLIGHT PLANNING PURPOSES.